Time;durP1;ratioP1;P1;durP2;ratioP2;P2;SDS_P1;SDS_P2;PMS_P1;PMS_P2;Temp;Humidity;BMP_temperature;BMP_pressure;BME280_temperature;BME280_humidity;BME280_pressure;Samples;Min_cycle;Max_cycle;Signal;HPM_P1;HPM_P2
2022/01/08 00:00:37;;;;;;;9.87;5.30;;;3.90;99.90;;;;;;5000140;28;20219;-72
2022/01/08 00:03:05;;;;;;;8.57;6.10;;;3.90;99.90;;;;;;5017515;28;20193;-71
2022/01/08 00:05:32;;;;;;;9.80;4.97;;;4.00;99.90;;;;;;4996218;28;20203;-71
2022/01/08 00:08:01;;;;;;;7.20;5.43;;;3.90;99.90;;;;;;4996909;28;20224;-71
2022/01/08 00:10:35;;;;;;;8.30;6.10;;;3.90;99.90;;;;;;4997250;28;20200;-71
2022/01/08 00:13:05;;;;;;;7.47;5.20;;;3.90;99.90;;;;;;4992476;28;20216;-71
2022/01/08 00:15:32;;;;;;;9.60;5.80;;;3.90;99.90;;;;;;5008058;28;20200;-71
2022/01/08 00:18:00;;;;;;;7.03;5.90;;;3.80;99.90;;;;;;5006748;28;20207;-71
2022/01/08 00:21:04;;;;;;;10.00;6.67;;;3.90;99.90;;;;;;5014869;28;20274;-71
2022/01/08 00:23:33;;;;;;;7.27;6.07;;;3.80;99.90;;;;;;5014371;28;20179;-71
2022/01/08 00:26:00;;;;;;;9.73;5.47;;;3.90;99.90;;;;;;4996206;28;20692;-71
2022/01/08 00:28:28;;;;;;;9.90;5.63;;;3.90;99.90;;;;;;4996629;28;20220;-71
2022/01/08 00:30:55;;;;;;;11.93;6.43;;;3.90;99.90;;;;;;4990595;28;20200;-71
2022/01/08 00:33:22;;;;;;;9.43;6.03;;;4.00;99.90;;;;;;5014713;28;20190;-71
2022/01/08 00:35:50;;;;;;;11.70;7.00;;;3.90;99.90;;;;;;4997100;28;20204;-71
2022/01/08 00:38:17;;;;;;;9.30;6.03;;;3.90;99.90;;;;;;5013401;28;20224;-71
2022/01/08 00:40:46;;;;;;;10.73;7.07;;;3.90;99.90;;;;;;4993374;28;20682;-71
2022/01/08 00:43:13;;;;;;;11.23;6.80;;;3.90;99.90;;;;;;5008491;28;20195;-71
2022/01/08 00:45:40;;;;;;;8.93;6.53;;;3.80;99.90;;;;;;5001968;28;20542;-71
2022/01/08 00:48:08;;;;;;;12.93;7.33;;;3.80;99.90;;;;;;4994959;28;20243;-71
2022/01/08 00:50:35;;;;;;;10.57;6.10;;;3.90;99.90;;;;;;4994057;28;20205;-71
2022/01/08 00:53:02;;;;;;;8.83;7.00;;;3.80;99.90;;;;;;5011287;28;20198;-71
2022/01/08 00:55:30;;;;;;;8.53;6.73;;;3.80;99.90;;;;;;5010611;28;20201;-71
2022/01/08 00:57:59;;;;;;;8.87;6.63;;;3.90;99.90;;;;;;4994806;28;20200;-71
2022/01/08 01:00:26;;;;;;;9.37;7.13;;;3.90;99.90;;;;;;5000042;28;20208;-71
2022/01/08 01:02:55;;;;;;;12.33;7.30;;;3.90;99.90;;;;;;5007682;28;20255;-71
2022/01/08 01:05:23;;;;;;;9.50;6.97;;;3.80;99.90;;;;;;4989478;28;20203;-71
2022/01/08 01:07:50;;;;;;;9.93;6.80;;;3.80;99.90;;;;;;5010739;28;20207;-71
2022/01/08 01:10:18;;;;;;;10.07;7.53;;;3.70;99.90;;;;;;4996797;28;20216;-71
2022/01/08 01:12:45;;;;;;;11.37;7.17;;;3.80;99.90;;;;;;5013553;28;20191;-71
2022/01/08 01:15:15;;;;;;;11.10;7.03;;;3.90;99.90;;;;;;4992000;28;20206;-71
2022/01/08 01:17:44;;;;;;;12.13;7.63;;;4.00;99.90;;;;;;5008075;28;20199;-71
2022/01/08 01:20:15;;;;;;;12.00;8.67;;;3.90;99.90;;;;;;5000327;28;20206;-71
2022/01/08 01:22:51;;;;;;;11.43;8.23;;;3.80;99.90;;;;;;4995784;28;20216;-71
2022/01/08 01:25:27;;;;;;;11.67;8.40;;;3.80;99.90;;;;;;5011925;28;20229;-71
2022/01/08 01:28:18;;;;;;;12.00;8.20;;;3.70;99.90;;;;;;5009039;28;20204;-71
2022/01/08 01:42:52;;;;;;;11.23;8.67;;;3.70;99.90;;;;;;4993118;28;20222;-71
2022/01/08 01:48:06;;;;;;;14.10;10.53;;;3.70;99.90;;;;;;5007272;28;20223;-71
2022/01/08 01:50:33;;;;;;;12.47;9.50;;;3.70;99.90;;;;;;4989310;28;20680;-71
2022/01/08 01:53:01;;;;;;;13.03;9.67;;;3.80;99.90;;;;;;5010247;28;20198;-71
2022/01/08 01:55:31;;;;;;;12.53;9.93;;;3.70;99.90;;;;;;5011594;28;20190;-71
2022/01/08 01:58:00;;;;;;;18.87;10.93;;;3.70;99.90;;;;;;4996934;28;20203;-71
2022/01/08 02:00:27;;;;;;;16.23;9.90;;;3.60;99.90;;;;;;4991613;28;20201;-71
2022/01/08 02:02:54;;;;;;;18.57;10.53;;;3.50;99.90;;;;;;5022804;28;20210;-71
2022/01/08 02:05:23;;;;;;;22.17;11.23;;;3.50;99.90;;;;;;5012659;28;20188;-71
2022/01/08 02:07:50;;;;;;;16.03;11.13;;;3.50;99.90;;;;;;4994798;28;20196;-71
2022/01/08 02:10:18;;;;;;;16.90;10.73;;;3.40;99.90;;;;;;4994696;28;20199;-71
2022/01/08 02:12:45;;;;;;;16.17;12.03;;;3.40;99.90;;;;;;4994119;28;20222;-71
2022/01/08 02:15:13;;;;;;;18.87;12.37;;;3.40;99.90;;;;;;5005016;28;20196;-71
2022/01/08 02:17:40;;;;;;;18.43;12.57;;;3.40;99.90;;;;;;5011100;28;20195;-71
2022/01/08 02:20:10;;;;;;;19.00;12.07;;;3.30;99.90;;;;;;4993977;28;20197;-71
2022/01/08 02:22:51;;;;;;;14.70;11.73;;;3.30;99.90;;;;;;5009080;28;20309;-71
2022/01/08 02:25:22;;;;;;;16.33;11.93;;;3.40;99.90;;;;;;4992458;28;20202;-71
2022/01/08 02:27:49;;;;;;;16.07;11.90;;;3.40;99.90;;;;;;4989806;28;20673;-71
2022/01/08 02:30:16;;;;;;;15.63;12.50;;;3.40;99.90;;;;;;4997915;28;20198;-70
2022/01/08 02:32:45;;;;;;;15.97;12.60;;;3.30;99.90;;;;;;5004088;28;20204;-71
2022/01/08 02:35:16;;;;;;;15.97;12.33;;;3.30;99.90;;;;;;5025041;28;20544;-71
2022/01/08 02:37:43;;;;;;;19.03;13.17;;;3.40;99.90;;;;;;5016546;28;20198;-71
2022/01/08 02:40:11;;;;;;;15.00;11.87;;;3.30;99.90;;;;;;5009500;28;20207;-70
2022/01/08 02:42:49;;;;;;;17.03;11.43;;;3.40;99.90;;;;;;5002684;28;20226;-71
2022/01/08 02:45:17;;;;;;;15.10;12.40;;;3.40;99.90;;;;;;4996675;28;20221;-71
2022/01/08 02:47:45;;;;;;;18.93;13.80;;;3.40;99.90;;;;;;5017022;28;20588;-71
2022/01/08 02:50:13;;;;;;;17.80;13.13;;;3.30;99.90;;;;;;5003482;28;20218;-71
2022/01/08 02:52:42;;;;;;;17.73;13.53;;;3.20;99.90;;;;;;5004032;28;20556;-71
2022/01/08 02:55:10;;;;;;;19.07;14.33;;;3.20;99.90;;;;;;5000550;28;20203;-71
2022/01/08 02:57:38;;;;;;;16.90;12.90;;;3.10;99.90;;;;;;5022575;28;20207;-71
2022/01/08 03:00:07;;;;;;;20.23;13.97;;;3.10;99.90;;;;;;5022637;28;20703;-71
2022/01/08 03:02:34;;;;;;;18.90;13.67;;;3.10;99.90;;;;;;4991845;28;20215;-71
2022/01/08 03:05:02;;;;;;;16.37;13.77;;;3.20;99.90;;;;;;4998738;28;20650;-71
2022/01/08 03:07:30;;;;;;;20.10;13.50;;;3.10;99.90;;;;;;5008817;28;20206;-71
2022/01/08 03:09:58;;;;;;;18.87;12.63;;;3.20;99.90;;;;;;5015971;28;20227;-71
2022/01/08 03:12:27;;;;;;;18.27;13.43;;;3.20;99.90;;;;;;4999116;28;20195;-71
2022/01/08 03:15:05;;;;;;;16.60;12.27;;;3.20;99.90;;;;;;5015414;28;20199;-71
2022/01/08 03:17:33;;;;;;;16.53;12.57;;;3.20;99.90;;;;;;5016917;28;20187;-71
2022/01/08 03:20:04;;;;;;;19.83;13.70;;;3.00;99.90;;;;;;5020110;28;20235;-71
2022/01/08 03:22:34;;;;;;;20.07;15.37;;;3.00;99.90;;;;;;4998559;28;20223;-71
2022/01/08 03:25:02;;;;;;;20.07;13.63;;;2.90;99.90;;;;;;5015867;28;20282;-71
2022/01/08 03:27:55;;;;;;;18.87;14.33;;;2.90;99.90;;;;;;4995448;28;20203;-71
2022/01/08 03:30:29;;;;;;;19.70;13.53;;;3.00;99.90;;;;;;5002635;28;20211;-71
2022/01/08 03:32:57;;;;;;;22.83;15.30;;;3.00;99.90;;;;;;4999251;28;20194;-71
2022/01/08 03:35:24;;;;;;;20.17;14.67;;;2.80;99.90;;;;;;5017250;28;20669;-71
2022/01/08 03:38:02;;;;;;;21.07;14.43;;;2.80;99.90;;;;;;4998430;28;20206;-71
2022/01/08 03:40:34;;;;;;;20.97;14.63;;;3.00;99.90;;;;;;5011317;28;20198;-71
2022/01/08 03:43:01;;;;;;;21.90;15.30;;;2.90;99.90;;;;;;4992743;28;20211;-71
2022/01/08 03:45:28;;;;;;;19.90;15.87;;;2.90;99.90;;;;;;5012138;28;20210;-70
2022/01/08 03:48:17;;;;;;;21.97;15.43;;;2.90;99.90;;;;;;4993893;28;20200;-71
2022/01/08 03:50:52;;;;;;;21.20;15.00;;;2.90;99.90;;;;;;4996481;28;20203;-71
2022/01/08 03:53:21;;;;;;;20.70;15.37;;;2.90;99.90;;;;;;4994210;28;20195;-71
2022/01/08 03:55:48;;;;;;;21.40;16.03;;;2.80;99.90;;;;;;4992478;28;20200;-71
2022/01/08 03:58:16;;;;;;;25.03;16.60;;;2.70;99.90;;;;;;5006025;28;20212;-71
2022/01/08 04:00:43;;;;;;;23.50;16.23;;;2.60;99.90;;;;;;5007056;28;20537;-71
2022/01/08 04:03:10;;;;;;;28.13;17.60;;;2.60;99.90;;;;;;4994584;28;20704;-71
2022/01/08 04:05:38;;;;;;;25.37;17.83;;;2.60;99.90;;;;;;4996808;28;20196;-71
2022/01/08 04:08:06;;;;;;;26.73;17.33;;;2.60;99.90;;;;;;4996126;28;20228;-71
2022/01/08 04:10:35;;;;;;;26.13;17.57;;;2.50;99.90;;;;;;4989584;28;20218;-71
2022/01/08 04:13:09;;;;;;;23.93;17.87;;;2.50;99.90;;;;;;4996742;28;20200;-71
2022/01/08 04:15:39;;;;;;;29.23;18.03;;;2.40;99.90;;;;;;4997518;28;20199;-71
2022/01/08 04:18:08;;;;;;;24.30;18.03;;;2.40;99.90;;;;;;4997449;28;20227;-71
2022/01/08 04:20:44;;;;;;;23.93;16.63;;;2.40;99.90;;;;;;4990179;28;20210;-70
2022/01/08 04:23:14;;;;;;;24.90;17.27;;;2.40;99.90;;;;;;5006056;28;20222;-70
2022/01/08 04:25:42;;;;;;;26.63;17.23;;;2.50;99.90;;;;;;5017581;28;20564;-70
2022/01/08 04:28:10;;;;;;;25.00;16.23;;;2.50;99.90;;;;;;5021156;28;20207;-70
2022/01/08 04:30:37;;;;;;;27.47;18.33;;;2.50;99.90;;;;;;4998560;28;20195;-70
2022/01/08 04:33:05;;;;;;;24.53;17.83;;;2.40;99.90;;;;;;5005394;28;20616;-70
2022/01/08 04:35:39;;;;;;;26.87;17.73;;;2.40;99.90;;;;;;5015016;28;20199;-70
2022/01/08 04:38:06;;;;;;;26.57;16.40;;;2.50;99.90;;;;;;5022041;28;20215;-70
2022/01/08 04:40:34;;;;;;;23.07;17.03;;;2.40;99.90;;;;;;4992997;28;20206;-70
2022/01/08 04:43:03;;;;;;;26.43;17.03;;;2.40;99.90;;;;;;4998230;28;20207;-70
2022/01/08 04:45:31;;;;;;;27.27;18.00;;;2.40;99.90;;;;;;5020723;28;20200;-70
2022/01/08 04:48:01;;;;;;;24.70;17.47;;;2.40;99.90;;;;;;5014795;28;20211;-70
2022/01/08 04:50:29;;;;;;;27.63;18.83;;;2.40;99.90;;;;;;5014168;28;20191;-70
2022/01/08 04:52:58;;;;;;;26.27;17.60;;;2.50;99.90;;;;;;4994124;28;20202;-71
2022/01/08 04:55:25;;;;;;;25.90;18.20;;;2.40;99.90;;;;;;4995781;28;20200;-70
2022/01/08 04:57:53;;;;;;;29.47;19.47;;;2.30;99.90;;;;;;4993559;28;20203;-70
2022/01/08 05:00:23;;;;;;;26.23;19.33;;;2.40;99.90;;;;;;5020295;28;20192;-70
2022/01/08 05:02:50;;;;;;;31.47;20.73;;;2.30;99.90;;;;;;4994875;28;20218;-70
2022/01/08 05:05:18;;;;;;;28.17;20.13;;;2.30;99.90;;;;;;5001641;28;20569;-70
2022/01/08 05:07:45;;;;;;;28.50;19.60;;;2.40;99.90;;;;;;4995893;28;20200;-71
2022/01/08 05:10:13;;;;;;;30.07;20.23;;;2.40;99.90;;;;;;4996265;28;20196;-70
2022/01/08 05:12:41;;;;;;;28.83;20.63;;;2.40;99.90;;;;;;5003493;28;20210;-71
2022/01/08 05:15:09;;;;;;;27.50;20.70;;;2.40;99.90;;;;;;5004231;28;20202;-70
2022/01/08 05:17:39;;;;;;;30.53;21.00;;;2.30;99.90;;;;;;5015928;28;20199;-70
2022/01/08 05:20:09;;;;;;;28.27;20.10;;;2.30;99.90;;;;;;4994137;28;20219;-70
2022/01/08 05:22:49;;;;;;;28.77;20.00;;;2.40;99.90;;;;;;5013313;28;20183;-70
2022/01/08 05:25:18;;;;;;;24.17;18.80;;;2.30;99.90;;;;;;5012677;28;20181;-70
2022/01/08 05:27:46;;;;;;;27.50;19.10;;;2.40;99.90;;;;;;4992972;28;20203;-71
2022/01/08 05:30:16;;;;;;;27.17;20.17;;;2.40;99.90;;;;;;4995409;28;20195;-71
2022/01/08 05:32:45;;;;;;;28.17;19.20;;;2.30;99.90;;;;;;4994212;28;20532;-71
2022/01/08 05:35:12;;;;;;;28.17;19.07;;;2.30;99.90;;;;;;4990358;28;20205;-71
2022/01/08 05:37:41;;;;;;;27.77;19.67;;;2.30;99.90;;;;;;4995659;28;20204;-71
2022/01/08 05:40:09;;;;;;;25.87;19.27;;;2.20;99.90;;;;;;4996434;28;20217;-70
2022/01/08 05:42:37;;;;;;;30.07;19.87;;;2.30;99.90;;;;;;5009286;28;20561;-70
2022/01/08 05:45:05;;;;;;;31.37;21.93;;;2.40;99.90;;;;;;5003563;28;20219;-70
2022/01/08 05:47:34;;;;;;;28.63;21.03;;;2.20;99.90;;;;;;5012317;28;20215;-70
2022/01/08 05:50:05;;;;;;;28.03;20.90;;;2.30;99.90;;;;;;5012184;28;20688;-70
2022/01/08 05:52:33;;;;;;;31.90;20.97;;;2.20;99.90;;;;;;4993403;28;20549;-70
2022/01/08 05:55:00;;;;;;;34.37;21.70;;;2.30;99.90;;;;;;4996672;28;20200;-71
2022/01/08 05:57:28;;;;;;;31.60;20.93;;;2.20;99.90;;;;;;5012327;28;20203;-71
2022/01/08 05:59:55;;;;;;;27.83;20.97;;;2.30;99.90;;;;;;4993922;28;20235;-71
2022/01/08 06:02:22;;;;;;;31.57;21.53;;;2.30;99.90;;;;;;5010805;28;20204;-71
2022/01/08 06:04:50;;;;;;;31.90;21.83;;;2.30;99.90;;;;;;4994130;28;20710;-71
2022/01/08 06:07:18;;;;;;;34.73;22.27;;;2.10;99.90;;;;;;4994522;28;20195;-70
2022/01/08 06:09:46;;;;;;;36.10;23.77;;;2.20;99.90;;;;;;4989136;28;20231;-71
2022/01/08 06:12:13;;;;;;;30.60;22.50;;;2.20;99.90;;;;;;5010155;28;20210;-71
2022/01/08 06:14:40;;;;;;;33.40;22.17;;;2.20;99.90;;;;;;4994606;28;20200;-70
2022/01/08 06:17:58;;;;;;;31.80;21.90;;;2.10;99.90;;;;;;4994431;28;20213;-70
2022/01/08 06:20:26;;;;;;;33.10;21.83;;;2.10;99.90;;;;;;4994469;28;20312;-70
2022/01/08 06:22:54;;;;;;;33.00;22.03;;;2.10;99.90;;;;;;5011149;28;20200;-71
2022/01/08 06:25:22;;;;;;;27.47;20.63;;;2.10;99.90;;;;;;5007602;28;20219;-70
2022/01/08 06:27:49;;;;;;;31.00;22.03;;;3.10;99.90;;;;;;4968078;28;20252;-71
2022/01/08 06:30:34;;;;;;;31.07;22.20;;;3.10;99.90;;;;;;4970369;28;20204;-70
2022/01/08 06:33:02;;;;;;;28.33;22.27;;;3.90;99.90;;;;;;4971659;28;20223;-71
2022/01/08 06:35:29;;;;;;;29.70;21.70;;;3.50;99.90;;;;;;4988960;28;20194;-71
2022/01/08 06:37:58;;;;;;;26.47;19.73;;;2.80;99.90;;;;;;4965627;28;20654;-71
2022/01/08 06:40:25;;;;;;;27.50;20.70;;;2.60;99.90;;;;;;4967584;28;20197;-71
2022/01/08 06:42:57;;;;;;;25.83;20.37;;;2.50;99.90;;;;;;4972314;28;20200;-71
2022/01/08 06:45:24;;;;;;;30.27;21.50;;;2.30;99.90;;;;;;4969885;28;20209;-71
2022/01/08 06:48:00;;;;;;;30.27;22.33;;;2.30;99.90;;;;;;4968511;28;20200;-70
2022/01/08 06:50:28;;;;;;;28.63;21.33;;;2.40;99.90;;;;;;4972133;28;20210;-70
2022/01/08 06:52:55;;;;;;;36.63;22.73;;;2.20;99.90;;;;;;4966273;28;20212;-70
2022/01/08 06:55:40;;;;;;;32.80;22.37;;;2.10;99.90;;;;;;4973107;28;20208;-70
2022/01/08 06:58:09;;;;;;;37.37;22.50;;;2.10;99.90;;;;;;4981360;28;20217;-70
2022/01/08 07:01:09;;;;;;;38.93;23.30;;;2.00;99.90;;;;;;4990272;28;20219;-70
2022/01/08 07:03:52;;;;;;;36.33;23.70;;;2.10;99.90;;;;;;4986146;28;20200;-72
2022/01/08 07:06:26;;;;;;;36.87;24.23;;;1.90;99.90;;;;;;4969998;28;20204;-73
2022/01/08 07:08:54;;;;;;;31.73;22.70;;;1.90;99.90;;;;;;4986512;28;20247;-73
2022/01/08 07:11:23;;;;;;;35.63;23.57;;;2.00;99.90;;;;;;4962273;28;20197;-73
2022/01/08 07:13:55;;;;;;;30.97;21.77;;;1.90;99.90;;;;;;4972112;28;20200;-73
2022/01/08 07:16:30;;;;;;;35.30;23.37;;;1.90;99.90;;;;;;4975891;28;20204;-73
2022/01/08 07:19:26;;;;;;;37.53;25.90;;;1.90;99.90;;;;;;4976107;28;20223;-73
2022/01/08 07:22:13;;;;;;;32.17;22.90;;;1.80;99.90;;;;;;4975221;28;20674;-73
2022/01/08 07:24:44;;;;;;;35.93;24.30;;;2.00;99.90;;;;;;4986462;28;20582;-72
2022/01/08 07:27:13;;;;;;;37.60;25.17;;;2.10;99.90;;;;;;4977743;28;20688;-73
2022/01/08 07:29:52;;;;;;;37.30;25.17;;;1.90;99.90;;;;;;4974816;28;20239;-70
2022/01/08 07:32:19;;;;;;;45.77;28.10;;;2.00;99.90;;;;;;4971428;28;20693;-70
2022/01/08 07:34:47;;;;;;;41.43;28.20;;;1.90;99.90;;;;;;4990924;28;20192;-71
2022/01/08 07:37:14;;;;;;;39.13;27.50;;;2.00;99.90;;;;;;4975011;28;20565;-71
2022/01/08 07:39:41;;;;;;;36.17;28.13;;;2.00;99.90;;;;;;4975733;28;20239;-71
2022/01/08 07:42:09;;;;;;;42.53;27.70;;;1.90;99.90;;;;;;4970598;28;20209;-70
2022/01/08 07:44:39;;;;;;;43.27;28.93;;;2.00;99.90;;;;;;4987198;28;20236;-70
2022/01/08 07:47:06;;;;;;;43.60;29.27;;;2.00;99.90;;;;;;4990994;28;20559;-70
2022/01/08 07:49:34;;;;;;;43.47;29.57;;;2.10;99.90;;;;;;4970783;28;20255;-72
2022/01/08 07:52:01;;;;;;;37.77;27.97;;;2.10;99.90;;;;;;4969088;28;20208;-71
2022/01/08 07:54:29;;;;;;;43.23;27.53;;;2.10;99.90;;;;;;4974340;28;20201;-71
2022/01/08 07:56:57;;;;;;;40.83;27.70;;;2.10;99.90;;;;;;4991457;28;20192;-70
2022/01/08 07:59:24;;;;;;;37.60;26.20;;;2.20;99.90;;;;;;4988591;28;20675;-71
2022/01/08 08:01:53;;;;;;;40.27;28.33;;;2.10;99.90;;;;;;4974157;28;20207;-71
2022/01/08 08:04:20;;;;;;;39.90;26.83;;;2.10;99.90;;;;;;4976967;28;20666;-72
2022/01/08 08:06:55;;;;;;;48.13;27.47;;;2.10;99.90;;;;;;4984988;28;20197;-74
2022/01/08 08:09:22;;;;;;;38.90;26.23;;;2.20;99.90;;;;;;4975806;28;20209;-73
2022/01/08 08:11:50;;;;;;;37.20;26.07;;;2.20;99.90;;;;;;4974525;28;20200;-74
2022/01/08 08:14:17;;;;;;;36.87;24.67;;;2.30;99.90;;;;;;4981400;28;20213;-74
2022/01/08 08:16:44;;;;;;;42.07;25.13;;;2.30;99.90;;;;;;4961630;28;20196;-71
2022/01/08 08:23:01;;;;;;;37.63;25.73;;;2.20;99.90;;;;;;5001672;28;20168;-73
2022/01/08 08:25:29;;;;;;;44.33;27.33;;;2.20;99.90;;;;;;4973505;28;20213;-74
2022/01/08 08:27:56;;;;;;;42.73;25.23;;;2.30;99.90;;;;;;5001765;28;20188;-71
2022/01/08 08:30:24;;;;;;;40.90;25.43;;;2.40;99.90;;;;;;4996703;28;20571;-74
2022/01/08 08:32:51;;;;;;;35.80;25.47;;;2.40;99.90;;;;;;4977275;28;20204;-73
2022/01/08 08:35:19;;;;;;;40.53;24.23;;;2.40;99.90;;;;;;4977319;28;20204;-71
2022/01/08 08:37:46;;;;;;;33.37;24.57;;;2.40;99.90;;;;;;4982565;28;20204;-71
2022/01/08 08:40:15;;;;;;;39.53;24.87;;;2.30;99.90;;;;;;4992188;28;20207;-71
2022/01/08 08:42:44;;;;;;;38.77;24.93;;;2.40;99.90;;;;;;4996638;28;20203;-71
2022/01/08 08:45:12;;;;;;;33.23;22.47;;;2.40;99.90;;;;;;4995269;28;20262;-71
2022/01/08 08:47:40;;;;;;;38.77;24.90;;;2.50;99.90;;;;;;4976485;28;20206;-71
2022/01/08 08:50:09;;;;;;;36.33;23.63;;;2.50;99.90;;;;;;4994125;28;20228;-73
2022/01/08 08:52:36;;;;;;;40.03;24.50;;;2.30;99.90;;;;;;4975536;28;20204;-73
2022/01/08 08:55:05;;;;;;;39.93;24.60;;;2.30;99.90;;;;;;4994248;28;20207;-73
2022/01/08 08:57:34;;;;;;;38.77;25.20;;;2.40;99.90;;;;;;4976871;28;20607;-73
2022/01/08 09:00:02;;;;;;;38.27;24.27;;;2.40;99.90;;;;;;4994176;28;20222;-74
2022/01/08 09:02:30;;;;;;;44.20;26.30;;;2.30;99.90;;;;;;4994083;28;20193;-73
2022/01/08 09:04:57;;;;;;;38.87;24.13;;;2.30;99.90;;;;;;4976318;28;20247;-73
2022/01/08 09:07:26;;;;;;;43.70;25.43;;;2.40;99.90;;;;;;4976271;28;20212;-73
2022/01/08 09:09:53;;;;;;;38.27;24.70;;;2.40;99.90;;;;;;4993844;28;20573;-73
2022/01/08 09:12:21;;;;;;;37.63;24.63;;;2.40;99.90;;;;;;4982001;28;20553;-73
2022/01/08 09:14:49;;;;;;;37.00;23.67;;;2.50;99.90;;;;;;5005158;28;20207;-73
2022/01/08 09:17:17;;;;;;;34.13;21.10;;;2.50;99.90;;;;;;4993849;28;20192;-73
2022/01/08 09:20:27;;;;;;;35.67;22.03;;;2.50;99.90;;;;;;4975918;28;20227;-74
2022/01/08 09:22:54;;;;;;;35.97;21.33;;;2.60;99.90;;;;;;4956757;28;20200;-73
2022/01/08 09:25:22;;;;;;;31.00;20.10;;;2.70;99.90;;;;;;5008222;28;20211;-73
2022/01/08 09:27:49;;;;;;;32.53;20.17;;;2.70;99.90;;;;;;4982172;28;20208;-73
2022/01/08 09:30:18;;;;;;;33.47;20.27;;;2.70;99.90;;;;;;4976744;28;20210;-74
2022/01/08 09:32:46;;;;;;;34.10;21.03;;;2.80;99.90;;;;;;4981438;28;20210;-73
2022/01/08 09:35:16;;;;;;;34.50;21.47;;;2.70;99.90;;;;;;4996122;28;20196;-73
2022/01/08 09:37:43;;;;;;;30.00;20.30;;;2.60;99.90;;;;;;4983079;28;20214;-73
2022/01/08 09:40:15;;;;;;;32.87;19.83;;;2.70;99.90;;;;;;4997810;28;20220;-74
2022/01/08 09:42:43;;;;;;;32.37;19.93;;;2.80;99.90;;;;;;4976050;28;20206;-73
2022/01/08 09:45:11;;;;;;;31.57;19.13;;;2.80;99.90;;;;;;4986206;28;20223;-73
2022/01/08 09:47:40;;;;;;;35.57;19.87;;;2.80;99.90;;;;;;4995648;28;20653;-74
2022/01/08 09:50:08;;;;;;;27.03;18.43;;;2.90;99.90;;;;;;5012830;28;20228;-73
2022/01/08 09:52:37;;;;;;;32.20;19.17;;;2.90;99.90;;;;;;4974400;28;20203;-73
2022/01/08 09:55:05;;;;;;;35.77;19.40;;;2.90;99.90;;;;;;4975703;28;20671;-73
2022/01/08 09:57:33;;;;;;;30.10;19.63;;;2.90;99.90;;;;;;4972412;28;20205;-73
2022/01/08 10:00:00;;;;;;;33.00;18.23;;;2.90;99.90;;;;;;4984451;28;20246;-73
2022/01/08 10:02:27;;;;;;;31.20;18.37;;;3.00;99.90;;;;;;5012118;28;20207;-73
2022/01/08 10:05:09;;;;;;;29.67;18.83;;;3.00;99.90;;;;;;5012280;28;20202;-73
2022/01/08 10:07:36;;;;;;;31.47;17.63;;;3.00;99.90;;;;;;5012676;28;20188;-73
2022/01/08 10:10:27;;;;;;;28.87;17.33;;;3.00;99.90;;;;;;4973658;28;20220;-73
2022/01/08 10:12:59;;;;;;;29.57;17.40;;;3.00;99.90;;;;;;4963725;28;20211;-74
2022/01/08 10:18:36;;;;;;;31.37;17.23;;;3.00;99.90;;;;;;4964635;28;20582;-73
2022/01/08 10:21:19;;;;;;;29.60;16.93;;;3.00;99.90;;;;;;4977114;28;20215;-73
2022/01/08 10:23:48;;;;;;;31.27;17.80;;;3.00;99.90;;;;;;4973130;28;20203;-73
2022/01/08 10:26:18;;;;;;;30.20;18.77;;;3.10;99.90;;;;;;4973170;28;20215;-73
2022/01/08 10:28:49;;;;;;;29.17;17.70;;;3.00;99.90;;;;;;4970323;28;20231;-73
2022/01/08 10:31:22;;;;;;;28.27;17.40;;;3.10;99.90;;;;;;4972710;28;20660;-73
2022/01/08 10:33:52;;;;;;;27.00;16.20;;;3.10;99.90;;;;;;4976247;28;20223;-73
2022/01/08 10:36:27;;;;;;;30.70;18.27;;;3.10;99.90;;;;;;4969688;28;20184;-73
2022/01/08 10:38:57;;;;;;;29.10;17.20;;;3.10;99.90;;;;;;4986569;28;20683;-74
2022/01/08 10:41:26;;;;;;;32.90;17.27;;;3.20;99.90;;;;;;4972699;28;20207;-74
2022/01/08 10:44:08;;;;;;;27.67;14.43;;;3.20;99.90;;;;;;4985361;28;20207;-73
2022/01/08 10:46:36;;;;;;;25.33;14.87;;;3.20;99.90;;;;;;4964998;28;20213;-73
2022/01/08 10:49:04;;;;;;;26.03;15.53;;;3.30;99.90;;;;;;4971760;28;20224;-73
2022/01/08 10:51:37;;;;;;;27.77;13.43;;;3.30;99.90;;;;;;4973056;28;20197;-73
2022/01/08 10:54:10;;;;;;;24.73;13.83;;;3.30;99.90;;;;;;4994442;28;20196;-73
2022/01/08 10:56:41;;;;;;;29.73;15.50;;;3.30;99.90;;;;;;4978052;28;20211;-73
2022/01/08 10:59:14;;;;;;;28.33;14.00;;;3.40;99.90;;;;;;4973707;28;20235;-73
2022/01/08 11:01:47;;;;;;;23.20;14.07;;;3.40;99.90;;;;;;4972234;28;20200;-73
2022/01/08 11:04:17;;;;;;;23.97;14.83;;;3.50;99.90;;;;;;4978161;28;20211;-73
2022/01/08 11:07:16;;;;;;;25.50;12.93;;;3.50;99.90;;;;;;4960164;28;20239;-73
2022/01/08 11:09:53;;;;;;;22.93;12.37;;;3.50;99.90;;;;;;4975596;28;20209;-73
2022/01/08 11:12:25;;;;;;;24.87;12.40;;;3.50;99.90;;;;;;4979887;28;20656;-73
2022/01/08 11:17:39;;;;;;;22.43;12.00;;;3.60;99.90;;;;;;4975525;28;20199;-70
2022/01/08 11:20:10;;;;;;;22.30;13.20;;;3.60;99.90;;;;;;4993802;28;20235;-73
2022/01/08 11:22:49;;;;;;;25.90;11.87;;;3.60;99.90;;;;;;4976668;28;20195;-73
2022/01/08 11:25:19;;;;;;;21.30;12.77;;;3.70;99.90;;;;;;4972896;28;20210;-73
2022/01/08 11:27:50;;;;;;;19.20;12.30;;;3.70;99.90;;;;;;4986153;28;20226;-73
2022/01/08 11:30:32;;;;;;;20.57;12.03;;;4.30;99.90;;;;;;4992594;28;20202;-73
2022/01/08 11:33:03;;;;;;;18.80;11.97;;;3.90;99.90;;;;;;4967399;28;20205;-73
2022/01/08 11:35:31;;;;;;;18.93;11.83;;;3.80;99.90;;;;;;4970666;28;20216;-73
2022/01/08 11:38:37;;;;;;;18.47;11.20;;;3.90;99.90;;;;;;4993616;28;20192;-73
2022/01/08 11:41:41;;;;;;;19.93;11.27;;;3.90;99.90;;;;;;4994248;28;20673;-73
2022/01/08 11:44:08;;;;;;;17.13;11.47;;;3.90;99.90;;;;;;4971847;28;20555;-73
2022/01/08 11:46:38;;;;;;;17.33;10.83;;;4.00;99.90;;;;;;4994618;28;20209;-73
2022/01/08 11:49:06;;;;;;;16.23;10.83;;;4.00;99.90;;;;;;4994811;28;20228;-73
2022/01/08 11:52:15;;;;;;;16.23;10.23;;;4.00;99.90;;;;;;4995104;28;20192;-73
2022/01/08 11:54:42;;;;;;;18.43;9.73;;;4.10;99.90;;;;;;4988662;28;20201;-73
2022/01/08 11:57:21;;;;;;;17.50;9.80;;;4.10;99.90;;;;;;4975103;28;20201;-73
2022/01/08 11:59:56;;;;;;;15.73;8.97;;;4.20;99.90;;;;;;4994220;28;20220;-73
2022/01/08 12:02:34;;;;;;;14.67;8.23;;;4.20;99.90;;;;;;4976402;28;20210;-73
2022/01/08 12:05:01;;;;;;;13.37;7.20;;;4.20;99.90;;;;;;4977415;28;20208;-74
2022/01/08 12:07:34;;;;;;;13.03;6.43;;;4.30;99.90;;;;;;4980399;28;20213;-73
2022/01/08 12:10:13;;;;;;;10.67;6.57;;;4.30;99.90;;;;;;4973797;28;20228;-73
2022/01/08 12:13:09;;;;;;;9.93;5.70;;;4.40;99.90;;;;;;4986643;28;20193;-74
2022/01/08 12:15:50;;;;;;;13.17;6.27;;;4.40;99.90;;;;;;4970057;28;20197;-73
2022/01/08 12:23:00;;;;;;;6.63;5.17;;;4.40;99.90;;;;;;4993395;28;20292;-73
2022/01/08 12:25:41;;;;;;;6.30;4.60;;;4.40;99.90;;;;;;4972908;28;20204;-73
2022/01/08 12:29:00;;;;;;;8.03;4.63;;;4.40;99.90;;;;;;4973521;28;20231;-73
2022/01/08 12:31:31;;;;;;;7.53;4.47;;;4.50;99.90;;;;;;4890752;29;20720;-73
2022/01/08 12:37:49;;;;;;;7.70;3.90;;;4.40;99.90;;;;;;4989663;28;20196;-73
2022/01/08 12:40:35;;;;;;;9.70;4.43;;;4.50;99.90;;;;;;4972335;28;20225;-73
2022/01/08 12:43:20;;;;;;;5.47;4.17;;;4.50;99.90;;;;;;4992058;28;20216;-73
2022/01/08 12:45:50;;;;;;;9.13;4.43;;;4.60;99.90;;;;;;4982332;28;20207;-73
2022/01/08 12:48:18;;;;;;;11.23;3.67;;;4.60;99.90;;;;;;4993007;28;20233;-73
2022/01/08 12:50:56;;;;;;;6.03;3.80;;;4.50;99.90;;;;;;4993906;28;20201;-73
2022/01/08 12:53:28;;;;;;;7.00;3.77;;;4.50;99.90;;;;;;4975975;28;20196;-73
2022/01/08 12:56:15;;;;;;;8.07;3.50;;;4.60;99.90;;;;;;4972266;28;20206;-73
2022/01/08 12:58:51;;;;;;;7.20;3.87;;;4.50;99.90;;;;;;4972762;28;20216;-73
2022/01/08 13:01:21;;;;;;;7.50;3.87;;;4.50;99.90;;;;;;4990502;28;20201;-73
2022/01/08 13:03:50;;;;;;;5.87;3.83;;;4.60;99.90;;;;;;4973357;28;20223;-73
2022/01/08 13:06:23;;;;;;;4.90;3.13;;;4.60;99.90;;;;;;4974543;28;20205;-73
2022/01/08 13:08:53;;;;;;;8.47;3.87;;;4.60;99.90;;;;;;4975290;28;20228;-73
2022/01/08 13:11:21;;;;;;;5.73;3.60;;;4.60;99.90;;;;;;4990591;28;20204;-73
2022/01/08 13:13:53;;;;;;;6.70;3.23;;;4.70;99.90;;;;;;4972960;28;20215;-73
2022/01/08 13:16:37;;;;;;;5.17;3.27;;;4.60;99.90;;;;;;4971197;28;20198;-73
2022/01/08 13:19:07;;;;;;;5.97;2.90;;;4.60;99.90;;;;;;4974766;28;20223;-74
2022/01/08 13:21:37;;;;;;;5.07;3.17;;;4.50;99.90;;;;;;4989208;28;20198;-73
2022/01/08 13:24:12;;;;;;;5.87;3.30;;;4.50;99.90;;;;;;4987721;28;20269;-74
2022/01/08 13:26:49;;;;;;;5.47;3.33;;;4.50;99.90;;;;;;4988157;28;20565;-73
2022/01/08 13:29:24;;;;;;;6.97;3.50;;;4.50;99.90;;;;;;4996788;28;20219;-73
2022/01/08 13:31:53;;;;;;;5.87;3.47;;;4.50;99.90;;;;;;4993961;28;20175;-73
2022/01/08 13:34:22;;;;;;;7.03;3.17;;;4.50;99.90;;;;;;4976656;28;20207;-73